createdAt,value
2023-05-10T00:00:27.699Z,16.24
2023-05-10T00:01:27.761Z,16.24
2023-05-10T00:02:27.776Z,16.21
2023-05-10T00:03:27.820Z,16.21
2023-05-10T00:04:27.655Z,16.22
2023-05-10T00:05:27.623Z,16.22
2023-05-10T00:06:27.660Z,16.24
2023-05-10T00:07:27.680Z,16.25
2023-05-10T00:08:27.794Z,16.22
2023-05-10T00:09:27.585Z,16.22
2023-05-10T00:10:27.912Z,16.21
2023-05-10T00:11:27.575Z,16.17
2023-05-10T00:12:27.571Z,16.17
2023-05-10T00:13:27.588Z,16.16
2023-05-10T00:14:27.511Z,16.21
2023-05-10T00:15:27.524Z,16.21
2023-05-10T00:16:27.548Z,16.17
2023-05-10T00:17:27.511Z,16.17
2023-05-10T00:18:27.563Z,16.17
2023-05-10T00:19:27.496Z,16.17
2023-05-10T00:20:27.478Z,16.13
2023-05-10T00:21:27.487Z,16.16
2023-05-10T00:22:27.475Z,16.17
2023-05-10T00:23:27.449Z,16.13
2023-05-10T00:24:27.697Z,16.10
2023-05-10T00:25:27.430Z,16.08
2023-05-10T00:26:27.385Z,16.08
2023-05-10T00:27:27.431Z,16.08
2023-05-10T00:28:27.389Z,16.10
2023-05-10T00:29:27.402Z,16.10
2023-05-10T00:30:27.392Z,16.13
2023-05-10T00:31:27.473Z,16.17
2023-05-10T00:32:27.414Z,16.12
2023-05-10T00:33:27.334Z,16.10
2023-05-10T00:34:27.340Z,16.03
2023-05-10T00:35:27.338Z,16.02
2023-05-10T00:36:27.293Z,16.05
2023-05-10T00:37:27.291Z,16.05
2023-05-10T00:38:27.287Z,16.03
2023-05-10T00:39:27.303Z,15.96
2023-05-10T00:40:27.255Z,16.02
2023-05-10T00:41:27.222Z,16.03
2023-05-10T00:42:27.254Z,16.02
2023-05-10T00:43:27.285Z,16.00
2023-05-10T00:44:27.191Z,15.99
2023-05-10T00:45:27.225Z,16.00
2023-05-10T00:46:27.221Z,16.05
2023-05-10T00:47:27.305Z,16.02
2023-05-10T00:48:27.153Z,15.99
2023-05-10T00:49:27.153Z,15.96
2023-05-10T00:50:27.113Z,16.03
2023-05-10T00:51:27.129Z,16.00
2023-05-10T00:52:27.153Z,16.00
2023-05-10T00:53:27.121Z,16.03
2023-05-10T00:54:27.108Z,16.05
2023-05-10T00:55:27.116Z,16.05
2023-05-10T00:56:27.058Z,16.09
2023-05-10T00:57:27.049Z,16.08
2023-05-10T00:58:27.065Z,16.03
2023-05-10T00:59:27.042Z,16.05
2023-05-10T01:00:27.027Z,16.03
2023-05-10T01:01:27.103Z,16.03
2023-05-10T01:02:27.085Z,16.08
2023-05-10T01:03:27.026Z,16.08
2023-05-10T01:04:27.046Z,16.06
2023-05-10T01:05:27.063Z,16.08
2023-05-10T01:06:27.000Z,16.06
2023-05-10T01:07:27.063Z,16.05
2023-05-10T01:08:26.982Z,16.02
2023-05-10T01:09:26.949Z,16.00
2023-05-10T01:10:26.916Z,15.94
2023-05-10T01:11:26.907Z,15.87
2023-05-10T01:12:26.931Z,15.81
2023-05-10T01:13:27.004Z,15.85
2023-05-10T01:14:26.884Z,15.83
2023-05-10T01:15:26.857Z,15.72
2023-05-10T01:16:27.000Z,15.70
2023-05-10T01:17:26.852Z,15.72
2023-05-10T01:18:26.868Z,15.67
2023-05-10T01:19:26.821Z,15.75
2023-05-10T01:20:26.813Z,15.75
2023-05-10T01:21:26.852Z,15.80
2023-05-10T01:22:26.804Z,15.75
2023-05-10T01:23:26.763Z,15.73
2023-05-10T01:24:26.764Z,15.78
2023-05-10T01:25:26.824Z,15.84
2023-05-10T01:26:26.782Z,15.83
2023-05-10T01:27:26.730Z,15.87
2023-05-10T01:28:26.707Z,15.84
2023-05-10T01:29:26.721Z,15.84
2023-05-10T01:30:27.049Z,15.84
2023-05-10T01:31:26.752Z,15.84
2023-05-10T01:32:26.748Z,15.81
2023-05-10T01:33:26.754Z,15.81
2023-05-10T01:34:26.683Z,15.83
2023-05-10T01:35:26.633Z,15.80
2023-05-10T01:36:26.616Z,15.78
2023-05-10T01:37:26.617Z,15.73
2023-05-10T01:38:26.601Z,15.72
2023-05-10T01:39:26.613Z,15.67
2023-05-10T01:40:26.638Z,15.62
2023-05-10T01:41:26.595Z,15.62
2023-05-10T01:42:26.576Z,15.60
2023-05-10T01:43:26.556Z,15.65
2023-05-10T01:44:26.551Z,15.62
2023-05-10T01:45:26.551Z,15.59
2023-05-10T01:46:26.634Z,15.50
2023-05-10T01:47:26.903Z,15.44
2023-05-10T01:48:26.514Z,15.44
2023-05-10T01:49:26.573Z,15.48
2023-05-10T01:50:26.473Z,15.51
2023-05-10T01:51:26.573Z,15.51
2023-05-10T01:52:26.483Z,15.45
2023-05-10T01:53:26.446Z,15.43
2023-05-10T01:54:26.436Z,15.39
2023-05-10T01:55:26.512Z,15.32
2023-05-10T01:56:26.451Z,15.25
2023-05-10T01:57:26.440Z,15.26
2023-05-10T01:58:26.388Z,15.27
2023-05-10T01:59:26.401Z,15.30
2023-05-10T02:00:26.402Z,15.27
2023-05-10T02:01:26.353Z,15.19
2023-05-10T02:02:26.380Z,15.17
2023-05-10T02:03:26.384Z,15.19
2023-05-10T02:04:26.321Z,15.19
2023-05-10T02:05:26.310Z,15.14
2023-05-10T02:06:26.351Z,15.18
2023-05-10T02:07:26.374Z,15.14
2023-05-10T02:08:26.345Z,15.14
2023-05-10T02:09:26.312Z,15.14
2023-05-10T02:10:26.291Z,15.14
2023-05-10T02:11:26.277Z,15.18
2023-05-10T02:12:26.268Z,15.17
2023-05-10T02:13:26.384Z,15.18
2023-05-10T02:14:26.243Z,15.12
2023-05-10T02:15:26.187Z,15.12
2023-05-10T02:16:26.261Z,15.17
2023-05-10T02:17:26.229Z,15.15
2023-05-10T02:18:26.195Z,15.07
2023-05-10T02:19:26.180Z,15.07
2023-05-10T02:20:26.195Z,15.11
2023-05-10T02:21:26.280Z,15.15
2023-05-10T02:22:26.156Z,15.17
2023-05-10T02:23:26.158Z,15.17
2023-05-10T02:24:26.131Z,15.17
2023-05-10T02:25:26.126Z,15.18
2023-05-10T02:26:32.807Z,15.12
2023-05-10T02:27:26.084Z,15.11
2023-05-10T02:28:26.094Z,15.14
2023-05-10T02:29:26.072Z,15.17
2023-05-10T02:30:26.103Z,15.14
2023-05-10T02:31:26.106Z,15.11
2023-05-10T02:32:26.067Z,15.07
2023-05-10T02:33:26.055Z,15.12
2023-05-10T02:34:26.015Z,15.11
2023-05-10T02:35:26.011Z,15.18
2023-05-10T02:36:26.018Z,15.14
2023-05-10T02:37:25.959Z,15.14
2023-05-10T02:38:25.961Z,15.14
2023-05-10T02:39:25.991Z,15.18
2023-05-10T02:40:28.089Z,15.12
2023-05-10T02:41:25.939Z,15.08
2023-05-10T02:42:25.941Z,15.12
2023-05-10T02:43:25.944Z,15.10
2023-05-10T02:44:25.906Z,15.10
2023-05-10T02:45:25.901Z,15.11
2023-05-10T02:46:25.930Z,15.12
2023-05-10T02:47:25.901Z,15.17
2023-05-10T02:48:25.896Z,15.14
2023-05-10T02:49:25.865Z,15.14
2023-05-10T02:50:25.867Z,15.11
2023-05-10T02:51:26.059Z,15.11
2023-05-10T02:52:25.807Z,15.15
2023-05-10T02:53:25.807Z,15.15
2023-05-10T02:54:25.790Z,15.10
2023-05-10T02:55:26.030Z,15.12
2023-05-10T02:56:25.780Z,15.12
2023-05-10T02:57:25.758Z,15.14
2023-05-10T02:58:25.738Z,15.12
2023-05-10T02:59:25.746Z,15.14
2023-05-10T03:00:25.755Z,15.12
2023-05-10T03:01:25.763Z,15.15
2023-05-10T03:02:25.834Z,15.14
2023-05-10T03:03:25.797Z,15.15
2023-05-10T03:04:25.728Z,15.14
2023-05-10T03:05:25.727Z,15.12
2023-05-10T03:06:25.656Z,15.08
2023-05-10T03:07:25.667Z,15.07
2023-05-10T03:08:25.667Z,15.07
2023-05-10T03:09:25.656Z,15.12
2023-05-10T03:10:25.631Z,15.11
2023-05-10T03:11:25.610Z,15.14
2023-05-10T03:12:25.580Z,15.10
2023-05-10T03:13:25.622Z,15.14
2023-05-10T03:14:25.555Z,15.14
2023-05-10T03:15:25.527Z,15.05
2023-05-10T03:16:25.718Z,15.08
2023-05-10T03:17:25.623Z,15.07
2023-05-10T03:18:25.536Z,15.11
2023-05-10T03:19:25.538Z,15.11
2023-05-10T03:20:25.535Z,15.05
2023-05-10T03:21:25.564Z,15.08
2023-05-10T03:22:25.495Z,15.08
2023-05-10T03:23:25.466Z,15.08
2023-05-10T03:24:25.529Z,15.04
2023-05-10T03:25:25.461Z,15.07
2023-05-10T03:26:25.509Z,15.05
2023-05-10T03:27:25.457Z,15.08
2023-05-10T03:28:25.488Z,15.07
2023-05-10T03:29:25.424Z,15.07
2023-05-10T03:30:25.409Z,14.99
2023-05-10T03:31:25.515Z,15.02
2023-05-10T03:32:25.489Z,15.04
2023-05-10T03:33:25.394Z,15.04
2023-05-10T03:34:25.416Z,15.05
2023-05-10T03:35:25.365Z,15.04
2023-05-10T03:36:25.350Z,15.02
2023-05-10T03:37:25.449Z,15.00
2023-05-10T03:38:25.368Z,15.00
2023-05-10T03:39:25.363Z,14.99
2023-05-10T03:40:25.304Z,14.96
2023-05-10T03:41:25.316Z,14.93
2023-05-10T03:42:25.271Z,14.94
2023-05-10T03:43:25.309Z,14.97
2023-05-10T03:44:25.237Z,14.97
2023-05-10T03:45:25.236Z,14.99
2023-05-10T03:46:25.421Z,14.99
2023-05-10T03:47:25.223Z,15.00
2023-05-10T03:48:25.192Z,15.02
2023-05-10T03:49:25.208Z,15.00
2023-05-10T03:50:25.207Z,14.97
2023-05-10T03:51:25.216Z,14.97
2023-05-10T03:52:25.186Z,14.96
2023-05-10T03:53:25.161Z,14.96
2023-05-10T03:54:25.168Z,14.96
2023-05-10T03:55:25.166Z,14.96
2023-05-10T03:56:25.162Z,14.94
2023-05-10T03:57:25.153Z,14.96
2023-05-10T03:58:25.151Z,14.96
2023-05-10T03:59:25.156Z,14.99
2023-05-10T04:00:25.110Z,15.02
2023-05-10T04:01:25.110Z,15.02
2023-05-10T04:02:25.399Z,15.02
2023-05-10T04:03:25.118Z,15.02
2023-05-10T04:04:25.084Z,15.04
2023-05-10T04:05:25.057Z,15.05
2023-05-10T04:06:25.090Z,15.00
2023-05-10T04:07:25.000Z,15.00
2023-05-10T04:08:24.989Z,15.00
2023-05-10T04:09:24.975Z,15.02
2023-05-10T04:10:25.076Z,15.00
2023-05-10T04:11:24.955Z,15.00
2023-05-10T04:12:24.970Z,15.04
2023-05-10T04:13:25.199Z,15.04
2023-05-10T04:14:24.933Z,15.02
2023-05-10T04:15:24.896Z,15.04
2023-05-10T04:16:24.941Z,15.05
2023-05-10T04:17:24.908Z,15.07
2023-05-10T04:18:24.895Z,15.07
2023-05-10T04:19:24.910Z,15.02
2023-05-10T04:20:25.659Z,15.02
2023-05-10T04:21:24.890Z,15.05
2023-05-10T04:22:24.819Z,15.08
2023-05-10T04:23:24.845Z,15.08
2023-05-10T04:24:24.817Z,15.08
2023-05-10T04:25:24.816Z,15.11
2023-05-10T04:26:24.825Z,15.10
2023-05-10T04:27:24.830Z,15.11
2023-05-10T04:28:24.836Z,15.14
2023-05-10T04:29:24.797Z,15.14
2023-05-10T04:30:24.779Z,15.14
2023-05-10T04:31:24.806Z,15.12
2023-05-10T04:32:24.790Z,15.15
2023-05-10T04:33:24.701Z,15.14
2023-05-10T04:34:24.701Z,15.17
2023-05-10T04:35:24.685Z,15.18
2023-05-10T04:36:24.938Z,15.17
2023-05-10T04:37:24.678Z,15.15
2023-05-10T04:38:24.668Z,15.17
2023-05-10T04:39:24.683Z,15.15
2023-05-10T04:40:24.674Z,15.14
2023-05-10T04:41:24.669Z,15.18
2023-05-10T04:42:24.644Z,15.22
2023-05-10T04:43:24.657Z,15.18
2023-05-10T04:44:24.631Z,15.18
2023-05-10T04:45:24.645Z,15.19
2023-05-10T04:46:24.719Z,15.25
2023-05-10T04:47:24.656Z,15.26
2023-05-10T04:48:24.561Z,15.29
2023-05-10T04:49:24.563Z,15.33
2023-05-10T04:50:24.552Z,15.32
2023-05-10T04:51:24.529Z,15.39
2023-05-10T04:52:24.520Z,15.41
2023-05-10T04:53:24.517Z,15.39
2023-05-10T04:54:24.547Z,15.41
2023-05-10T04:55:24.511Z,15.36
2023-05-10T04:56:24.487Z,15.35
2023-05-10T04:57:24.485Z,15.39
2023-05-10T04:58:24.463Z,15.39
2023-05-10T04:59:24.501Z,15.41
2023-05-10T05:00:24.459Z,15.37
2023-05-10T05:01:24.437Z,15.44
2023-05-10T05:02:24.441Z,15.41
2023-05-10T05:03:24.469Z,15.45
2023-05-10T05:04:24.415Z,15.44
2023-05-10T05:05:24.407Z,15.51
2023-05-10T05:06:24.372Z,15.50
2023-05-10T05:07:24.354Z,15.52
2023-05-10T05:08:24.340Z,15.48
2023-05-10T05:09:24.359Z,15.47
2023-05-10T05:10:24.337Z,15.45
2023-05-10T05:11:24.417Z,15.41
2023-05-10T05:12:24.340Z,15.37
2023-05-10T05:13:24.443Z,15.36
2023-05-10T05:14:24.274Z,15.37
2023-05-10T05:15:24.276Z,15.44
2023-05-10T05:16:24.290Z,15.43
2023-05-10T05:17:24.684Z,15.37
2023-05-10T05:18:24.206Z,15.32
2023-05-10T05:19:24.214Z,15.35
2023-05-10T05:20:25.042Z,15.33
2023-05-10T05:21:24.187Z,15.37
2023-05-10T05:22:24.422Z,15.41
2023-05-10T05:23:24.200Z,15.43
2023-05-10T05:24:24.196Z,15.45
2023-05-10T05:25:24.338Z,15.50
2023-05-10T05:26:24.165Z,15.50
2023-05-10T05:27:24.134Z,15.52
2023-05-10T05:28:24.205Z,15.51
2023-05-10T05:29:24.157Z,15.52
2023-05-10T05:30:24.205Z,15.48
2023-05-10T05:31:24.116Z,15.45
2023-05-10T05:32:24.109Z,15.44
2023-05-10T05:33:24.107Z,15.44
2023-05-10T05:34:24.081Z,15.45
2023-05-10T05:35:24.102Z,15.50
2023-05-10T05:36:24.114Z,15.48
2023-05-10T05:37:24.037Z,15.50
2023-05-10T05:38:24.038Z,15.47
2023-05-10T05:39:24.031Z,15.47
2023-05-10T05:40:24.033Z,15.47
2023-05-10T05:41:24.020Z,15.50
2023-05-10T05:42:24.122Z,15.52
2023-05-10T05:43:24.009Z,15.48
2023-05-10T05:44:23.934Z,15.45
2023-05-10T05:45:23.922Z,15.45
2023-05-10T05:46:23.991Z,15.48
2023-05-10T05:47:24.103Z,15.48
2023-05-10T05:48:23.885Z,15.48
2023-05-10T05:49:23.892Z,15.50
2023-05-10T05:50:23.886Z,15.48
2023-05-10T05:51:23.885Z,15.51
2023-05-10T05:52:23.894Z,15.52
2023-05-10T05:53:23.897Z,15.52
2023-05-10T05:54:23.906Z,15.55
2023-05-10T05:55:23.842Z,15.57
2023-05-10T05:56:23.858Z,15.59
2023-05-10T05:57:23.822Z,15.60
2023-05-10T05:58:23.824Z,15.60
2023-05-10T05:59:23.796Z,15.62
2023-05-10T06:00:23.749Z,15.57
2023-05-10T06:01:23.760Z,15.59
2023-05-10T06:02:23.823Z,15.63
2023-05-10T06:03:23.834Z,15.65
2023-05-10T06:04:23.851Z,15.67
2023-05-10T06:05:23.735Z,15.70
2023-05-10T06:06:23.781Z,15.70
2023-05-10T06:07:23.680Z,15.73
2023-05-10T06:08:23.659Z,15.78
2023-05-10T06:09:23.705Z,15.78
2023-05-10T06:10:23.702Z,15.84
2023-05-10T06:11:23.656Z,15.87
2023-05-10T06:12:23.639Z,15.87
2023-05-10T06:13:23.666Z,15.85
2023-05-10T06:14:23.612Z,15.91
2023-05-10T06:15:23.606Z,15.92
2023-05-10T06:16:23.638Z,15.94
2023-05-10T06:17:23.605Z,15.92
2023-05-10T06:18:23.553Z,15.96
2023-05-10T06:19:23.564Z,15.99
2023-05-10T06:20:23.545Z,16.03
2023-05-10T06:21:23.674Z,16.08
2023-05-10T06:22:23.544Z,16.16
2023-05-10T06:23:23.552Z,16.24
2023-05-10T06:24:23.536Z,16.32
2023-05-10T06:25:23.533Z,16.36
2023-05-10T06:26:23.514Z,16.39
2023-05-10T06:27:23.519Z,16.40
2023-05-10T06:28:23.495Z,16.43
2023-05-10T06:29:23.509Z,16.43
2023-05-10T06:30:23.505Z,16.39
2023-05-10T06:31:23.549Z,16.32
2023-05-10T06:32:23.483Z,16.32
2023-05-10T06:33:23.492Z,16.29
2023-05-10T06:34:23.446Z,16.31
2023-05-10T06:35:23.424Z,16.32
2023-05-10T06:36:23.441Z,16.32
2023-05-10T06:37:23.411Z,16.37
2023-05-10T06:38:23.408Z,16.39
2023-05-10T06:39:23.460Z,16.46
2023-05-10T06:40:23.402Z,16.50
2023-05-10T06:41:24.802Z,16.62
2023-05-10T06:42:23.331Z,16.65
2023-05-10T06:43:23.462Z,16.72
2023-05-10T06:44:23.309Z,16.77
2023-05-10T06:45:23.301Z,16.82
2023-05-10T06:46:23.397Z,16.89
2023-05-10T06:47:23.271Z,16.94
2023-05-10T06:48:23.324Z,16.97
2023-05-10T06:49:23.326Z,17.04
2023-05-10T06:50:23.291Z,17.10
2023-05-10T06:51:23.281Z,17.17
2023-05-10T06:52:23.225Z,17.23
2023-05-10T06:53:23.215Z,17.32
2023-05-10T06:54:23.270Z,17.34
2023-05-10T06:55:23.246Z,17.34
2023-05-10T06:56:23.170Z,17.30
2023-05-10T06:57:31.245Z,17.27
2023-05-10T06:58:24.139Z,17.27
2023-05-10T06:59:23.220Z,17.23
2023-05-10T07:00:23.176Z,17.22
2023-05-10T07:01:23.350Z,17.23
2023-05-10T07:02:23.103Z,17.23
2023-05-10T07:03:23.174Z,17.22
2023-05-10T07:04:23.160Z,17.19
2023-05-10T07:05:23.179Z,17.17
2023-05-10T07:06:32.940Z,17.24
2023-05-10T07:07:24.077Z,17.27
2023-05-10T07:08:23.045Z,17.32
2023-05-10T07:09:23.068Z,17.52
2023-05-10T07:10:23.047Z,17.66
2023-05-10T07:11:23.030Z,17.86
2023-05-10T07:12:23.037Z,17.94
2023-05-10T07:13:23.235Z,17.95
2023-05-10T07:14:22.950Z,18.06
2023-05-10T07:15:22.974Z,18.21
2023-05-10T07:16:23.181Z,18.42
2023-05-10T07:17:23.033Z,18.58
2023-05-10T07:18:22.961Z,18.74
2023-05-10T07:19:22.973Z,18.86
2023-05-10T07:20:22.925Z,18.98
2023-05-10T07:21:22.988Z,19.08
2023-05-10T07:22:22.894Z,19.19
2023-05-10T07:23:22.890Z,19.17
2023-05-10T07:24:22.867Z,19.08
2023-05-10T07:25:22.874Z,18.92
2023-05-10T07:26:22.944Z,18.83
2023-05-10T07:27:22.879Z,18.86
2023-05-10T07:28:23.550Z,19.00
2023-05-10T07:29:22.818Z,19.11
2023-05-10T07:30:22.814Z,19.05
2023-05-10T07:31:22.781Z,19.12
2023-05-10T07:32:23.874Z,19.22
2023-05-10T07:33:22.797Z,19.29
2023-05-10T07:34:22.745Z,19.39
2023-05-10T07:35:22.732Z,19.90
2023-05-10T07:36:22.730Z,20.36
2023-05-10T07:37:22.692Z,20.73
2023-05-10T07:38:22.685Z,20.82
2023-05-10T07:39:27.768Z,21.07
2023-05-10T07:40:23.672Z,21.30
2023-05-10T07:41:22.704Z,21.48
2023-05-10T07:42:22.694Z,21.70
2023-05-10T07:43:22.701Z,21.88
2023-05-10T07:44:22.726Z,22.01
2023-05-10T07:45:22.712Z,22.18
2023-05-10T07:46:22.706Z,22.21
2023-05-10T07:47:22.788Z,22.28
2023-05-10T07:48:22.630Z,22.22
2023-05-10T07:49:22.633Z,22.46
2023-05-10T07:50:22.700Z,22.49
2023-05-10T07:51:22.635Z,22.58
2023-05-10T07:52:22.963Z,22.83
2023-05-10T07:53:22.569Z,22.70
2023-05-10T07:54:22.546Z,22.28
2023-05-10T07:55:22.581Z,22.49
2023-05-10T07:56:22.556Z,22.62
2023-05-10T07:57:22.509Z,22.86
2023-05-10T07:58:22.529Z,22.95
2023-05-10T07:59:22.506Z,22.62
2023-05-10T08:00:22.477Z,22.31
2023-05-10T08:01:22.543Z,22.12
2023-05-10T08:02:22.524Z,22.07
2023-05-10T08:03:22.566Z,22.06
2023-05-10T08:04:22.513Z,22.28
2023-05-10T08:05:22.444Z,22.23
2023-05-10T08:06:22.483Z,22.18
2023-05-10T08:07:22.438Z,22.25
2023-05-10T08:08:22.381Z,22.34
2023-05-10T08:09:22.352Z,22.37
2023-05-10T08:10:22.410Z,22.22
2023-05-10T08:11:22.385Z,22.07
2023-05-10T08:12:22.408Z,21.89
2023-05-10T08:13:22.338Z,21.77
2023-05-10T08:14:22.348Z,21.63
2023-05-10T08:15:22.400Z,21.44
2023-05-10T08:16:22.320Z,21.29
2023-05-10T08:17:23.479Z,21.26
2023-05-10T08:18:22.454Z,21.17
2023-05-10T08:19:22.265Z,21.08
2023-05-10T08:20:22.395Z,20.98
2023-05-10T08:21:22.280Z,20.93
2023-05-10T08:22:22.430Z,20.90
2023-05-10T08:23:22.235Z,21.00
2023-05-10T08:24:22.198Z,21.10
2023-05-10T08:25:22.229Z,21.13
2023-05-10T08:26:22.274Z,21.22
2023-05-10T08:27:22.222Z,21.35
2023-05-10T08:28:22.168Z,21.81
2023-05-10T08:29:22.265Z,22.53
2023-05-10T08:30:22.192Z,23.25
2023-05-10T08:31:22.210Z,23.70
2023-05-10T08:32:22.161Z,23.45
2023-05-10T08:33:22.214Z,23.32
2023-05-10T08:34:22.375Z,23.11
2023-05-10T08:35:22.165Z,22.83
2023-05-10T08:36:22.128Z,22.63
2023-05-10T08:37:22.135Z,22.47
2023-05-10T08:38:22.060Z,22.37
2023-05-10T08:39:29.754Z,22.23
2023-05-10T08:40:23.104Z,22.56
2023-05-10T08:41:22.053Z,22.58
2023-05-10T08:42:22.028Z,22.76
2023-05-10T08:43:22.274Z,22.73
2023-05-10T08:44:22.017Z,22.63
2023-05-10T08:45:21.998Z,22.59
2023-05-10T08:46:22.038Z,22.70
2023-05-10T08:47:21.943Z,23.06
2023-05-10T08:48:21.952Z,23.55
2023-05-10T08:49:21.995Z,24.31
2023-05-10T08:50:21.915Z,24.11
2023-05-10T08:51:21.881Z,23.99
2023-05-10T08:52:21.881Z,24.01
2023-05-10T08:53:21.921Z,24.11
2023-05-10T08:54:21.884Z,24.04
2023-05-10T08:55:22.260Z,24.16
2023-05-10T08:56:21.987Z,24.11
2023-05-10T08:57:21.847Z,24.34
2023-05-10T08:58:21.854Z,24.48
2023-05-10T08:59:21.843Z,24.18
2023-05-10T09:00:21.802Z,23.85
2023-05-10T09:01:21.827Z,23.58
2023-05-10T09:02:21.787Z,23.33
2023-05-10T09:03:21.809Z,23.18
2023-05-10T09:04:21.973Z,23.08
2023-05-10T09:05:21.743Z,23.14
2023-05-10T09:06:21.733Z,23.49
2023-05-10T09:07:21.733Z,24.22
2023-05-10T09:08:21.723Z,24.41
2023-05-10T09:09:21.731Z,24.92
2023-05-10T09:10:21.694Z,24.65
2023-05-10T09:11:21.738Z,24.43
2023-05-10T09:12:21.822Z,24.09
2023-05-10T09:13:21.817Z,23.92
2023-05-10T09:14:21.653Z,23.63
2023-05-10T09:15:21.645Z,23.42
2023-05-10T09:16:22.580Z,23.34
2023-05-10T09:17:21.721Z,23.39
2023-05-10T09:18:21.696Z,23.39
2023-05-10T09:19:21.615Z,23.37
2023-05-10T09:20:21.683Z,23.08
2023-05-10T09:21:21.606Z,22.91
2023-05-10T09:22:21.597Z,22.73
2023-05-10T09:23:21.614Z,22.77
2023-05-10T09:24:21.553Z,23.36
2023-05-10T09:25:21.578Z,24.13
2023-05-10T09:26:21.519Z,24.89
2023-05-10T09:27:21.570Z,25.85
2023-05-10T09:28:21.600Z,26.46
2023-05-10T09:29:21.502Z,27.13
2023-05-10T09:30:21.483Z,27.63
2023-05-10T09:31:21.760Z,26.86
2023-05-10T09:32:21.548Z,27.00
2023-05-10T09:33:21.518Z,26.63
2023-05-10T09:34:21.504Z,26.74
2023-05-10T09:35:21.475Z,26.67
2023-05-10T09:36:21.435Z,27.47
2023-05-10T09:37:21.451Z,27.94
2023-05-10T09:38:21.541Z,27.57
2023-05-10T09:39:21.416Z,27.11
2023-05-10T09:40:21.417Z,26.59
2023-05-10T09:41:21.636Z,25.68
2023-05-10T09:42:21.400Z,25.11
2023-05-10T09:43:21.436Z,24.78
2023-05-10T09:44:21.437Z,24.50
2023-05-10T09:45:21.334Z,24.31
2023-05-10T09:46:21.363Z,24.06
2023-05-10T09:47:21.299Z,23.84
2023-05-10T09:48:21.273Z,23.79
2023-05-10T09:49:21.310Z,23.74
2023-05-10T09:50:21.321Z,23.62
2023-05-10T09:51:21.317Z,23.52
2023-05-10T09:52:21.302Z,23.39
2023-05-10T09:53:21.282Z,23.39
2023-05-10T09:54:21.232Z,23.34
2023-05-10T09:55:21.244Z,23.26
2023-05-10T09:56:21.243Z,23.17
2023-05-10T09:57:21.210Z,23.04
2023-05-10T09:58:21.241Z,22.88
2023-05-10T09:59:21.166Z,22.88
2023-05-10T10:00:21.164Z,22.84
2023-05-10T10:01:21.180Z,22.88
2023-05-10T10:02:21.526Z,22.92
2023-05-10T10:03:21.139Z,22.98
2023-05-10T10:04:21.103Z,22.95
2023-05-10T10:05:21.156Z,22.78
2023-05-10T10:06:29.651Z,22.49
2023-05-10T10:07:22.187Z,22.25
2023-05-10T10:08:21.105Z,22.15
2023-05-10T10:09:21.066Z,22.00
2023-05-10T10:10:21.077Z,21.77
2023-05-10T10:11:21.044Z,21.68
2023-05-10T10:12:21.106Z,21.63
2023-05-10T10:13:21.143Z,21.51
2023-05-10T10:14:21.038Z,21.33
2023-05-10T10:15:21.264Z,21.17
2023-05-10T10:16:21.885Z,20.96
2023-05-10T10:17:21.056Z,20.89
2023-05-10T10:18:21.002Z,20.86
2023-05-10T10:19:20.942Z,20.95
2023-05-10T10:20:20.999Z,20.90
2023-05-10T10:21:20.924Z,20.86
2023-05-10T10:22:20.929Z,20.74
2023-05-10T10:23:20.929Z,20.74
2023-05-10T10:24:20.920Z,20.77
2023-05-10T10:25:20.903Z,20.48
2023-05-10T10:26:20.873Z,20.29
2023-05-10T10:27:20.925Z,20.39
2023-05-10T10:28:20.906Z,20.58
2023-05-10T10:29:20.843Z,20.80
2023-05-10T10:30:21.498Z,21.00
2023-05-10T10:31:20.841Z,21.23
2023-05-10T10:32:20.829Z,21.63
2023-05-10T10:34:21.799Z,23.10
2023-05-10T10:35:20.928Z,23.56
2023-05-10T10:36:20.816Z,23.32
2023-05-10T10:37:20.754Z,22.92
2023-05-10T10:38:20.757Z,22.62
2023-05-10T10:39:20.724Z,22.62
2023-05-10T10:40:20.749Z,22.74
2023-05-10T10:41:20.723Z,23.07
2023-05-10T10:42:20.746Z,23.32
2023-05-10T10:43:20.685Z,23.36
2023-05-10T10:44:20.673Z,23.04
2023-05-10T10:45:20.659Z,22.77
2023-05-10T10:46:20.698Z,22.44
2023-05-10T10:47:20.658Z,22.08
2023-05-10T10:48:20.667Z,21.80
2023-05-10T10:49:20.626Z,21.47
2023-05-10T10:50:20.632Z,21.05
2023-05-10T10:51:20.608Z,20.78
2023-05-10T10:52:20.634Z,20.49
2023-05-10T10:53:20.734Z,20.37
2023-05-10T10:54:20.576Z,20.19
2023-05-10T10:55:20.701Z,19.79
2023-05-10T10:56:20.596Z,19.81
2023-05-10T10:57:20.541Z,19.75
2023-05-10T10:58:20.606Z,19.93
2023-05-10T10:59:20.533Z,20.18
2023-05-10T11:00:20.559Z,20.50
2023-05-10T11:01:20.762Z,21.01
2023-05-10T11:02:20.533Z,23.34
2023-05-10T11:03:20.579Z,25.89
2023-05-10T11:04:20.484Z,24.85
2023-05-10T11:05:20.529Z,23.82
2023-05-10T11:06:20.548Z,23.25
2023-05-10T11:07:20.538Z,22.51
2023-05-10T11:08:20.587Z,22.07
2023-05-10T11:09:20.398Z,21.84
2023-05-10T11:10:20.438Z,21.38
2023-05-10T11:11:20.377Z,21.25
2023-05-10T11:12:20.379Z,21.20
2023-05-10T11:13:20.356Z,21.29
2023-05-10T11:14:20.377Z,21.35
2023-05-10T11:15:20.356Z,21.65
2023-05-10T11:16:20.434Z,21.69
2023-05-10T11:17:20.365Z,22.18
2023-05-10T11:18:20.333Z,23.52
2023-05-10T11:19:20.344Z,24.96
2023-05-10T11:20:20.453Z,26.42
2023-05-10T11:21:20.300Z,27.23
2023-05-10T11:22:20.298Z,28.30
2023-05-10T11:23:20.263Z,28.67
2023-05-10T11:24:20.280Z,28.77
2023-05-10T11:25:20.257Z,29.00
2023-05-10T11:26:20.462Z,28.08
2023-05-10T11:27:20.389Z,26.42
2023-05-10T11:28:20.240Z,25.07
2023-05-10T11:29:20.355Z,24.06
2023-05-10T11:30:20.498Z,23.26
2023-05-10T11:31:20.283Z,22.65
2023-05-10T11:32:20.190Z,22.08
2023-05-10T11:33:20.592Z,21.68
2023-05-10T11:34:20.188Z,21.37
2023-05-10T11:35:20.212Z,21.26
2023-05-10T11:36:20.127Z,21.11
2023-05-10T11:37:20.091Z,20.98
2023-05-10T11:38:20.128Z,20.96
2023-05-10T11:39:20.784Z,21.10
2023-05-10T11:40:20.244Z,21.26
2023-05-10T11:41:20.099Z,21.26
2023-05-10T11:42:20.065Z,21.54
2023-05-10T11:43:20.054Z,21.77
2023-05-10T11:44:20.071Z,22.18
2023-05-10T11:45:20.209Z,23.07
2023-05-10T11:46:20.073Z,24.56
2023-05-10T11:47:20.060Z,24.75
2023-05-10T11:48:19.986Z,26.23
2023-05-10T11:49:19.984Z,27.34
2023-05-10T11:50:20.189Z,27.60
2023-05-10T11:51:19.965Z,27.40
2023-05-10T11:52:20.025Z,26.30
2023-05-10T11:53:19.959Z,26.34
2023-05-10T11:54:19.941Z,25.40
2023-05-10T11:55:19.903Z,24.69
2023-05-10T11:56:19.914Z,25.70
2023-05-10T11:57:19.895Z,27.03
2023-05-10T11:58:19.878Z,26.48
2023-05-10T11:59:19.886Z,25.33
2023-05-10T12:00:20.151Z,24.36
2023-05-10T12:01:19.862Z,23.76
2023-05-10T12:02:19.889Z,23.56
2023-05-10T12:03:19.910Z,23.44
2023-05-10T12:04:20.130Z,23.44
2023-05-10T12:05:19.815Z,23.67
2023-05-10T12:06:19.824Z,26.73
2023-05-10T12:07:19.760Z,29.20
2023-05-10T12:08:19.755Z,30.73
2023-05-10T12:09:31.559Z,31.59
2023-05-10T12:10:21.027Z,31.23
2023-05-10T12:11:19.737Z,28.56
2023-05-10T12:12:19.736Z,27.75
2023-05-10T12:13:19.710Z,27.28
2023-05-10T12:14:20.594Z,29.07
2023-05-10T12:15:19.710Z,30.63
2023-05-10T12:16:19.698Z,30.81
2023-05-10T12:17:19.701Z,28.43
2023-05-10T12:18:19.682Z,28.06
2023-05-10T12:19:19.662Z,28.90
2023-05-10T12:20:19.854Z,27.63
2023-05-10T12:21:19.839Z,28.94
2023-05-10T12:22:19.696Z,29.42
2023-05-10T12:23:19.597Z,30.63
2023-05-10T12:24:19.616Z,32.29
2023-05-10T12:25:19.612Z,33.20
2023-05-10T12:26:19.564Z,31.55
2023-05-10T12:27:19.550Z,28.83
2023-05-10T12:28:19.535Z,26.93
2023-05-10T12:29:19.639Z,25.91
2023-05-10T12:30:19.534Z,25.26
2023-05-10T12:31:19.632Z,24.81
2023-05-10T12:32:19.653Z,24.59
2023-05-10T12:33:19.585Z,24.40
2023-05-10T12:34:19.559Z,24.38
2023-05-10T12:35:19.509Z,26.04
2023-05-10T12:36:19.496Z,28.67
2023-05-10T12:37:19.533Z,29.15
2023-05-10T12:38:19.475Z,27.60
2023-05-10T12:39:19.542Z,26.24
2023-05-10T12:40:19.521Z,25.54
2023-05-10T12:41:19.463Z,25.96
2023-05-10T12:42:19.422Z,26.88
2023-05-10T12:43:19.428Z,26.45
2023-05-10T12:44:19.471Z,25.91
2023-05-10T12:45:19.394Z,26.07
2023-05-10T12:46:19.488Z,26.07
2023-05-10T12:47:19.364Z,27.18
2023-05-10T12:48:19.361Z,26.34
2023-05-10T12:49:19.364Z,27.76
2023-05-10T12:50:19.413Z,27.55
2023-05-10T12:51:19.321Z,26.19
2023-05-10T12:52:19.335Z,25.14
2023-05-10T12:53:19.351Z,24.51